createdAt,value
2023-05-10T00:03:27.971Z,4.43
2023-05-10T00:07:50.290Z,3.75
2023-05-10T00:12:12.374Z,3.67
2023-05-10T00:16:34.524Z,3.33
2023-05-10T00:20:56.853Z,3.50
2023-05-10T00:25:18.922Z,3.90
2023-05-10T00:29:40.771Z,3.65
2023-05-10T00:34:03.079Z,3.65
2023-05-10T00:38:25.793Z,3.45
2023-05-10T00:42:47.857Z,3.40
2023-05-10T00:47:10.562Z,3.60
2023-05-10T00:51:32.856Z,3.78
2023-05-10T00:55:55.076Z,3.22
2023-05-10T01:00:19.354Z,3.60
2023-05-10T01:04:42.159Z,3.88
2023-05-10T01:09:04.457Z,3.67
2023-05-10T01:13:41.140Z,3.60
2023-05-10T01:18:03.740Z,3.08
2023-05-10T01:23:12.160Z,3.17
2023-05-10T01:28:12.995Z,4.10
2023-05-10T01:33:16.643Z,3.50
2023-05-10T01:37:50.777Z,3.80
2023-05-10T01:42:24.543Z,3.72
2023-05-10T01:47:05.643Z,4.07
2023-05-10T01:51:36.473Z,3.50
2023-05-10T01:56:00.913Z,3.80
2023-05-10T02:00:24.981Z,3.75
2023-05-10T02:04:50.001Z,4.00
2023-05-10T02:09:14.244Z,4.30
2023-05-10T02:13:38.610Z,4.05
2023-05-10T02:18:02.676Z,3.55
2023-05-10T02:22:26.879Z,3.67
2023-05-10T02:26:50.414Z,4.13
2023-05-10T02:31:13.162Z,4.30
2023-05-10T02:35:36.156Z,3.83
2023-05-10T02:39:59.515Z,3.88
2023-05-10T02:44:23.577Z,4.03
2023-05-10T02:48:45.815Z,4.40
2023-05-10T02:53:16.693Z,3.65
2023-05-10T02:57:49.409Z,4.05
2023-05-10T03:02:13.454Z,4.47
2023-05-10T03:06:35.916Z,4.32
2023-05-10T03:11:17.337Z,4.50
2023-05-10T03:16:16.949Z,4.85
2023-05-10T03:21:02.977Z,5.05
2023-05-10T03:25:26.289Z,4.13
2023-05-10T03:29:50.023Z,3.80
2023-05-10T03:34:12.517Z,3.90
2023-05-10T03:38:34.815Z,3.50
2023-05-10T03:42:57.276Z,4.43
2023-05-10T03:47:19.286Z,3.53
2023-05-10T03:51:41.349Z,4.03
2023-05-10T03:56:03.598Z,3.88
2023-05-10T04:00:26.009Z,3.42
2023-05-10T04:04:50.743Z,3.90
2023-05-10T04:09:13.578Z,3.42
2023-05-10T04:13:37.386Z,3.85
2023-05-10T04:17:59.293Z,3.88
2023-05-10T04:22:21.981Z,3.88
2023-05-10T04:26:44.299Z,3.65
2023-05-10T04:31:08.848Z,3.22
2023-05-10T04:35:31.395Z,3.88
2023-05-10T04:39:53.878Z,3.50
2023-05-10T04:44:16.057Z,3.13
2023-05-10T04:48:38.063Z,2.90
2023-05-10T04:53:00.183Z,2.40
2023-05-10T04:57:22.604Z,2.80
2023-05-10T05:01:44.857Z,3.10
2023-05-10T05:06:07.937Z,2.80
2023-05-10T05:10:29.956Z,2.85
2023-05-10T05:14:51.915Z,3.00
2023-05-10T05:19:14.152Z,2.50
2023-05-10T05:23:36.356Z,3.22
2023-05-10T05:27:58.588Z,2.80
2023-05-10T05:32:20.598Z,2.50
2023-05-10T05:36:42.602Z,2.83
2023-05-10T05:41:04.935Z,2.80
2023-05-10T05:45:26.886Z,2.45
2023-05-10T05:49:48.894Z,2.47
2023-05-10T05:54:10.835Z,2.78
2023-05-10T05:58:33.262Z,2.60
2023-05-10T06:02:55.388Z,2.90
2023-05-10T06:07:17.806Z,2.63
2023-05-10T06:11:39.878Z,3.70
2023-05-10T06:16:03.229Z,3.13
2023-05-10T06:20:25.643Z,3.50
2023-05-10T06:24:47.637Z,2.70
2023-05-10T06:29:09.788Z,2.60
2023-05-10T06:33:32.376Z,3.15
2023-05-10T06:37:54.657Z,3.28
2023-05-10T06:42:16.640Z,3.35
2023-05-10T06:46:42.847Z,3.13
2023-05-10T06:51:05.156Z,3.28
2023-05-10T06:55:27.831Z,3.00
2023-05-10T06:59:49.887Z,3.22
2023-05-10T07:04:12.238Z,3.03
2023-05-10T07:08:37.727Z,2.67
2023-05-10T07:13:00.125Z,2.88
2023-05-10T07:17:22.596Z,2.72
2023-05-10T07:21:45.628Z,2.97
2023-05-10T07:26:08.232Z,3.58
2023-05-10T07:30:30.160Z,2.88
2023-05-10T07:34:52.115Z,3.40
2023-05-10T07:39:16.428Z,2.75
2023-05-10T07:43:46.723Z,3.22
2023-05-10T07:48:08.926Z,3.08
2023-05-10T07:52:31.153Z,3.03
2023-05-10T07:56:53.212Z,3.63
2023-05-10T08:01:15.362Z,3.13
2023-05-10T08:05:37.634Z,2.88
2023-05-10T08:09:59.676Z,2.50
2023-05-10T08:14:21.735Z,3.00
2023-05-10T08:18:45.085Z,3.30
2023-05-10T08:23:07.282Z,3.40
2023-05-10T08:27:29.603Z,3.40
2023-05-10T08:31:52.155Z,3.30
2023-05-10T08:36:16.390Z,3.75
2023-05-10T08:40:39.850Z,3.20
2023-05-10T08:45:03.019Z,3.47
2023-05-10T08:49:27.652Z,3.53
2023-05-10T08:53:49.741Z,3.75
2023-05-10T08:58:11.903Z,3.53
2023-05-10T09:02:34.165Z,3.60
2023-05-10T09:06:58.037Z,3.72
2023-05-10T09:11:21.916Z,3.25
2023-05-10T09:15:46.129Z,3.83
2023-05-10T09:20:08.993Z,3.92
2023-05-10T09:24:32.279Z,4.00
2023-05-10T09:28:59.779Z,4.25
2023-05-10T09:33:22.084Z,3.88
2023-05-10T09:37:48.934Z,3.75
2023-05-10T09:42:11.753Z,4.10
2023-05-10T09:46:37.920Z,4.47
2023-05-10T09:51:00.303Z,4.10
2023-05-10T09:55:24.826Z,3.92
2023-05-10T09:59:48.156Z,4.40
2023-05-10T10:04:12.053Z,4.13
2023-05-10T10:08:34.437Z,4.18
2023-05-10T10:12:57.218Z,4.35
2023-05-10T10:17:21.116Z,4.45
2023-05-10T10:21:43.247Z,5.18
2023-05-10T10:26:06.558Z,4.75
2023-05-10T10:30:49.488Z,5.40
2023-05-10T10:35:11.881Z,5.57
2023-05-10T10:39:33.913Z,5.68
2023-05-10T10:44:24.895Z,4.75
2023-05-10T10:49:11.196Z,4.38
2023-05-10T10:53:34.085Z,4.90
2023-05-10T10:58:05.824Z,5.03
2023-05-10T11:02:47.040Z,4.85
2023-05-10T11:07:20.865Z,4.78
2023-05-10T11:11:59.614Z,4.18
2023-05-10T11:16:26.742Z,5.00
2023-05-10T11:20:56.296Z,4.70
2023-05-10T11:25:18.787Z,4.38
2023-05-10T11:29:41.176Z,4.65
2023-05-10T11:34:03.313Z,4.60
2023-05-10T11:38:25.658Z,4.65
2023-05-10T11:42:47.888Z,4.50
2023-05-10T11:47:10.280Z,4.88
2023-05-10T11:51:40.410Z,5.13
2023-05-10T11:56:11.301Z,5.43
2023-05-10T12:00:33.654Z,6.00
2023-05-10T12:04:57.147Z,5.88
2023-05-10T12:09:31.409Z,7.28
2023-05-10T12:13:58.197Z,7.38
2023-05-10T12:18:26.018Z,7.82
2023-05-10T12:22:54.797Z,7.90
2023-05-10T12:27:17.345Z,7.38
2023-05-10T12:31:57.944Z,7.50
2023-05-10T12:36:25.193Z,8.02
2023-05-10T12:40:47.751Z,8.35
2023-05-10T12:45:10.847Z,8.52
2023-05-10T12:49:33.357Z,7.55
2023-05-10T12:53:55.574Z,6.72
2023-05-10T12:58:31.335Z,6.63
2023-05-10T13:02:57.020Z,6.43
2023-05-10T13:07:19.315Z,6.82
2023-05-10T13:11:41.641Z,5.95
2023-05-10T13:16:03.880Z,6.00
2023-05-10T13:20:26.936Z,6.07
2023-05-10T13:24:49.182Z,4.72
2023-05-10T13:29:11.568Z,5.68
2023-05-10T13:33:33.675Z,4.97
2023-05-10T13:37:58.028Z,4.78
2023-05-10T13:42:20.208Z,4.88
2023-05-10T13:46:43.592Z,5.22
2023-05-10T13:51:05.712Z,5.03
2023-05-10T13:55:27.738Z,4.00
2023-05-10T13:59:49.799Z,4.70
2023-05-10T14:04:12.492Z,4.68
2023-05-10T14:08:35.898Z,4.50
2023-05-10T14:12:58.556Z,4.32
2023-05-10T14:17:20.846Z,4.57
2023-05-10T14:21:43.069Z,4.35
2023-05-10T14:26:05.245Z,4.53
2023-05-10T14:30:27.656Z,4.82
2023-05-10T14:34:50.157Z,5.10
2023-05-10T14:39:13.949Z,4.95
2023-05-10T14:43:36.539Z,4.75
2023-05-10T14:47:59.402Z,5.00
2023-05-10T14:52:21.738Z,4.90
2023-05-10T14:56:43.875Z,4.78
2023-05-10T15:01:06.332Z,4.80
2023-05-10T15:05:29.141Z,5.05
2023-05-10T15:09:55.466Z,5.13
2023-05-10T15:14:17.468Z,4.85
2023-05-10T15:18:39.177Z,5.35
2023-05-10T15:23:01.789Z,4.93
2023-05-10T15:27:24.132Z,6.03
2023-05-10T15:31:46.086Z,5.75
2023-05-10T15:36:08.474Z,19.08
2023-05-10T15:40:30.438Z,4.30
2023-05-10T15:44:52.473Z,4.60
2023-05-10T15:49:14.501Z,3.72
2023-05-10T15:53:36.398Z,4.03
2023-05-10T15:57:58.714Z,4.10
2023-05-10T16:02:21.967Z,5.57
2023-05-10T16:06:44.302Z,4.65
2023-05-10T16:11:07.578Z,4.00
2023-05-10T16:15:29.925Z,4.20
2023-05-10T16:19:51.858Z,3.95
2023-05-10T16:24:13.923Z,4.22
2023-05-10T16:28:36.013Z,3.92
2023-05-10T16:32:58.617Z,3.60
2023-05-10T16:37:21.049Z,4.28
2023-05-10T16:41:43.256Z,3.70
2023-05-10T16:46:11.938Z,4.28
2023-05-10T16:50:34.365Z,3.67
2023-05-10T16:54:57.211Z,3.95
2023-05-10T16:59:19.373Z,3.83
2023-05-10T17:03:41.648Z,4.28
2023-05-10T17:08:03.480Z,4.00
2023-05-10T17:12:26.204Z,4.13
2023-05-10T17:16:48.638Z,4.68
2023-05-10T17:21:10.860Z,4.00
2023-05-10T17:25:35.080Z,5.05
2023-05-10T17:29:58.169Z,5.63
2023-05-10T17:34:20.725Z,6.18
2023-05-10T17:38:43.594Z,5.07
2023-05-10T17:43:05.910Z,6.05
2023-05-10T17:47:28.084Z,4.90
2023-05-10T17:51:50.441Z,3.83
2023-05-10T17:56:12.655Z,4.25
2023-05-10T18:00:34.955Z,4.55
2023-05-10T18:04:59.130Z,5.60
2023-05-10T18:09:22.549Z,5.53
2023-05-10T18:13:44.544Z,5.55
2023-05-10T18:18:07.211Z,6.10
2023-05-10T18:22:29.231Z,6.47
2023-05-10T18:26:51.305Z,6.55
2023-05-10T18:31:13.538Z,6.97
2023-05-10T18:35:35.708Z,6.78
2023-05-10T18:39:57.947Z,7.57
2023-05-10T18:44:19.850Z,7.88
2023-05-10T18:48:41.927Z,7.90
2023-05-10T18:53:04.094Z,8.50
2023-05-10T18:57:26.236Z,7.55
2023-05-10T19:01:50.779Z,8.05
2023-05-10T19:06:13.069Z,8.20
2023-05-10T19:10:35.187Z,7.90
2023-05-10T19:14:57.101Z,7.82
2023-05-10T19:19:19.129Z,8.73
2023-05-10T19:23:42.340Z,8.07
2023-05-10T19:28:05.097Z,11.95
2023-05-10T19:32:28.733Z,9.77
2023-05-10T19:36:50.846Z,9.63
2023-05-10T19:41:13.471Z,11.25
2023-05-10T19:45:36.692Z,10.27
2023-05-10T19:49:59.139Z,11.15
2023-05-10T19:54:21.313Z,19.58
2023-05-10T19:58:44.320Z,18.90
2023-05-10T20:03:08.518Z,14.77
2023-05-10T20:07:31.236Z,12.02
2023-05-10T20:12:02.783Z,14.68
2023-05-10T20:16:26.775Z,11.80
2023-05-10T20:21:10.194Z,11.68
2023-05-10T20:25:32.221Z,11.65
2023-05-10T20:29:54.375Z,13.25
2023-05-10T20:34:16.575Z,13.50
2023-05-10T20:38:39.956Z,13.45
2023-05-10T20:43:02.036Z,12.05
2023-05-10T20:47:24.185Z,11.55
2023-05-10T20:51:46.283Z,10.85
2023-05-10T20:56:08.674Z,11.13
2023-05-10T21:00:30.882Z,10.45
2023-05-10T21:04:53.626Z,11.15
2023-05-10T21:09:17.755Z,12.18
2023-05-10T21:13:39.994Z,11.15
2023-05-10T21:18:02.203Z,11.93
2023-05-10T21:22:24.476Z,12.40
2023-05-10T21:26:47.460Z,11.82
2023-05-10T21:31:09.760Z,12.30
2023-05-10T21:35:31.817Z,12.55
2023-05-10T21:39:54.154Z,12.40
2023-05-10T21:44:16.508Z,12.57
2023-05-10T21:48:38.725Z,14.13
2023-05-10T21:53:01.443Z,12.00
2023-05-10T21:57:23.582Z,12.88
2023-05-10T22:01:45.731Z,14.45
2023-05-10T22:06:08.616Z,14.35
2023-05-10T22:10:31.582Z,15.60
2023-05-10T22:15:06.409Z,14.23
2023-05-10T22:19:31.548Z,14.05
2023-05-10T22:23:53.656Z,13.98
2023-05-10T22:28:25.134Z,15.45
2023-05-10T22:32:47.619Z,15.23
2023-05-10T22:37:10.014Z,15.73
2023-05-10T22:41:34.478Z,14.23
2023-05-10T22:45:56.659Z,13.55
2023-05-10T22:50:19.298Z,13.93
2023-05-10T22:54:41.657Z,13.88
2023-05-10T22:59:03.795Z,15.52
2023-05-10T23:03:26.396Z,15.25
2023-05-10T23:07:53.247Z,15.55
2023-05-10T23:12:15.436Z,14.77
2023-05-10T23:16:37.209Z,14.73
2023-05-10T23:20:59.314Z,14.73
2023-05-10T23:25:22.150Z,14.13
2023-05-10T23:29:44.133Z,14.93
2023-05-10T23:34:06.398Z,14.93
2023-05-10T23:38:28.436Z,13.60
2023-05-10T23:42:50.698Z,13.95
2023-05-10T23:47:12.844Z,13.27
2023-05-10T23:51:34.794Z,15.25
2023-05-10T23:55:57.579Z,15.90
